createdAt,value
2023-04-25T00:01:48.006Z,8.70
2023-04-25T00:04:15.157Z,8.70
2023-04-25T00:06:44.446Z,8.80
2023-04-25T00:09:12.402Z,8.60
2023-04-25T00:11:39.449Z,8.70
2023-04-25T00:14:07.591Z,8.80
2023-04-25T00:16:35.946Z,9.00
2023-04-25T00:19:05.263Z,9.00
2023-04-25T00:21:33.761Z,9.10
2023-04-25T00:24:01.930Z,9.20
2023-04-25T00:26:29.057Z,9.30
2023-04-25T00:28:56.675Z,9.20
2023-04-25T00:31:23.613Z,9.20
2023-04-25T00:33:50.890Z,9.00
2023-04-25T00:36:19.104Z,8.80
2023-04-25T00:38:45.900Z,8.60
2023-04-25T00:41:13.136Z,8.50
2023-04-25T00:43:48.188Z,8.50
2023-04-25T00:46:16.164Z,8.50
2023-04-25T00:48:43.094Z,8.70
2023-04-25T00:51:16.794Z,8.70
2023-04-25T00:53:43.922Z,8.80
2023-04-25T00:56:11.037Z,8.70
2023-04-25T00:58:41.237Z,8.60
2023-04-25T01:01:09.147Z,8.60
2023-04-25T01:03:41.976Z,8.50
2023-04-25T01:06:12.152Z,8.40
2023-04-25T01:08:40.355Z,8.30
2023-04-25T01:11:07.435Z,8.30
2023-04-25T01:13:36.132Z,8.40
2023-04-25T01:16:04.771Z,8.40
2023-04-25T01:18:32.791Z,8.40
2023-04-25T01:21:09.595Z,8.30
2023-04-25T01:23:37.723Z,8.40
2023-04-25T01:26:04.757Z,8.30
2023-04-25T01:28:35.460Z,8.30
2023-04-25T01:31:02.743Z,8.20
2023-04-25T01:33:30.743Z,8.20
2023-04-25T01:35:57.593Z,8.30
2023-04-25T01:38:24.731Z,8.30
2023-04-25T01:40:53.177Z,8.30
2023-04-25T01:43:20.245Z,8.30
2023-04-25T01:45:47.478Z,8.30
2023-04-25T01:48:15.344Z,8.20
2023-04-25T01:50:43.788Z,8.20
2023-04-25T01:53:12.952Z,8.10
2023-04-25T01:55:39.804Z,8.20
2023-04-25T01:58:10.651Z,8.10
2023-04-25T02:00:41.756Z,8.10
2023-04-25T02:03:09.589Z,8.10
2023-04-25T02:05:40.510Z,8.00
2023-04-25T02:08:09.050Z,8.00
2023-04-25T02:10:36.398Z,7.90
2023-04-25T02:13:05.369Z,8.00
2023-04-25T02:15:33.468Z,8.10
2023-04-25T02:18:01.625Z,8.20
2023-04-25T02:20:30.978Z,8.30
2023-04-25T02:22:57.780Z,8.50
2023-04-25T02:25:24.943Z,8.40
2023-04-25T02:27:52.399Z,8.40
2023-04-25T02:30:22.552Z,8.30
2023-04-25T02:32:49.784Z,8.30
2023-04-25T02:35:18.164Z,8.40
2023-04-25T02:37:44.970Z,8.50
2023-04-25T02:40:12.208Z,8.60
2023-04-25T02:42:40.416Z,8.60
2023-04-25T02:45:07.708Z,8.50
2023-04-25T02:47:36.796Z,8.50
2023-04-25T02:50:04.326Z,8.40
2023-04-25T02:52:31.354Z,8.40
2023-04-25T02:54:58.322Z,8.40
2023-04-25T02:57:26.233Z,8.50
2023-04-25T02:59:53.236Z,8.50
2023-04-25T03:02:20.395Z,8.40
2023-04-25T03:04:49.039Z,8.20
2023-04-25T03:07:16.040Z,8.20
2023-04-25T03:09:43.071Z,8.10
2023-04-25T03:12:10.335Z,8.10
2023-04-25T03:14:37.199Z,8.10
2023-04-25T03:17:04.228Z,8.10
2023-04-25T03:19:31.483Z,8.20
2023-04-25T03:21:59.566Z,8.30
2023-04-25T03:24:28.065Z,8.30
2023-04-25T03:26:54.900Z,8.10
2023-04-25T03:29:25.372Z,8.20
2023-04-25T03:31:52.379Z,8.20
2023-04-25T03:34:19.312Z,8.20
2023-04-25T03:36:49.289Z,8.20
2023-04-25T03:39:16.811Z,8.20
2023-04-25T03:41:44.581Z,8.10
2023-04-25T03:44:13.654Z,8.00
2023-04-25T03:46:41.678Z,8.00
2023-04-25T03:49:08.670Z,7.90
2023-04-25T03:51:35.810Z,7.80
2023-04-25T03:54:02.716Z,7.80
2023-04-25T03:56:29.710Z,7.80
2023-04-25T03:58:57.625Z,7.80
2023-04-25T04:01:24.308Z,7.70
2023-04-25T04:03:52.363Z,7.60
2023-04-25T04:06:21.692Z,7.50
2023-04-25T04:08:49.525Z,7.50
2023-04-25T04:11:16.296Z,7.60
2023-04-25T04:13:43.137Z,7.60
2023-04-25T04:16:10.681Z,7.60
2023-04-25T04:18:37.897Z,7.60
2023-04-25T04:21:06.090Z,7.60
2023-04-25T04:23:32.974Z,7.60
2023-04-25T04:26:00.791Z,7.50
2023-04-25T04:28:28.008Z,7.40
2023-04-25T04:30:55.085Z,7.50
2023-04-25T04:33:24.502Z,7.50
2023-04-25T04:35:53.290Z,7.60
2023-04-25T04:38:20.718Z,7.70
2023-04-25T04:40:48.681Z,7.70
2023-04-25T04:43:18.077Z,7.60
2023-04-25T04:45:45.504Z,7.60
2023-04-25T04:48:15.066Z,7.70
2023-04-25T04:50:46.785Z,7.70
2023-04-25T04:53:14.862Z,7.70
2023-04-25T04:55:42.912Z,7.70
2023-04-25T04:58:10.048Z,7.50
2023-04-25T05:00:36.775Z,7.50
2023-04-25T05:03:04.043Z,7.50
2023-04-25T05:05:31.219Z,7.40
2023-04-25T05:07:58.250Z,7.30
2023-04-25T05:10:27.116Z,7.40
2023-04-25T05:12:54.072Z,7.30
2023-04-25T05:15:21.861Z,7.30
2023-04-25T05:17:49.860Z,7.30
2023-04-25T05:20:19.660Z,7.30
2023-04-25T05:22:46.685Z,7.30
2023-04-25T05:25:14.629Z,7.40
2023-04-25T05:27:41.649Z,7.50
2023-04-25T05:30:10.543Z,7.40
2023-04-25T05:32:37.661Z,7.50
2023-04-25T05:35:05.164Z,7.50
2023-04-25T05:37:33.708Z,7.50
2023-04-25T05:40:01.886Z,7.50
2023-04-25T05:42:28.926Z,7.50
2023-04-25T05:44:58.722Z,7.70
2023-04-25T05:47:25.929Z,7.70
2023-04-25T05:49:53.101Z,7.90
2023-04-25T05:52:21.102Z,8.00
2023-04-25T05:54:49.060Z,8.00
2023-04-25T05:57:24.713Z,8.00
2023-04-25T05:59:54.592Z,8.10
2023-04-25T06:02:22.453Z,8.10
2023-04-25T06:04:52.144Z,8.00
2023-04-25T06:07:20.942Z,8.10
2023-04-25T06:09:47.782Z,8.10
2023-04-25T06:12:14.558Z,8.10
2023-04-25T06:14:42.408Z,8.10
2023-04-25T06:17:09.486Z,8.20
2023-04-25T06:19:39.228Z,8.20
2023-04-25T06:22:06.290Z,8.20
2023-04-25T06:24:33.235Z,8.10
2023-04-25T06:27:00.881Z,8.20
2023-04-25T06:29:27.668Z,8.30
2023-04-25T06:31:54.805Z,8.30
2023-04-25T06:34:21.844Z,8.30
2023-04-25T06:36:48.919Z,8.30
2023-04-25T06:39:15.933Z,8.50
2023-04-25T06:41:43.027Z,8.60
2023-04-25T06:44:10.154Z,8.60
2023-04-25T06:46:37.339Z,8.60
2023-04-25T06:49:04.170Z,8.70
2023-04-25T06:51:31.756Z,8.70
2023-04-25T06:53:58.747Z,8.60
2023-04-25T06:56:26.484Z,8.60
2023-04-25T06:58:53.723Z,8.60
2023-04-25T07:01:20.624Z,8.60
2023-04-25T07:03:47.664Z,8.70
2023-04-25T07:06:14.767Z,8.80
2023-04-25T07:08:41.811Z,8.80
2023-04-25T07:11:08.795Z,8.80
2023-04-25T07:13:35.910Z,8.80
2023-04-25T07:16:04.090Z,8.90
2023-04-25T07:18:31.995Z,8.90
2023-04-25T07:20:59.048Z,8.90
2023-04-25T07:23:26.044Z,8.90
2023-04-25T07:25:53.142Z,8.90
2023-04-25T07:28:20.200Z,8.90
2023-04-25T07:30:47.267Z,8.90
2023-04-25T07:33:15.136Z,8.90
2023-04-25T07:35:42.191Z,8.90
2023-04-25T07:38:09.608Z,9.00
2023-04-25T07:40:36.749Z,8.90
2023-04-25T07:43:03.760Z,8.90
2023-04-25T07:45:30.804Z,8.90
2023-04-25T07:47:57.856Z,8.80
2023-04-25T07:50:24.994Z,8.80
2023-04-25T07:52:51.945Z,8.70
2023-04-25T07:55:19.009Z,8.80
2023-04-25T07:57:46.037Z,8.70
2023-04-25T08:00:13.695Z,8.80
2023-04-25T08:02:40.745Z,9.00
2023-04-25T08:05:09.480Z,9.20
2023-04-25T08:07:36.832Z,9.30
2023-04-25T08:10:03.976Z,9.30
2023-04-25T08:12:30.810Z,9.40
2023-04-25T08:14:57.839Z,9.30
2023-04-25T08:17:24.866Z,9.20
2023-04-25T08:19:51.910Z,9.30
2023-04-25T08:22:18.978Z,9.50
2023-04-25T08:24:45.986Z,9.90
2023-04-25T08:27:14.014Z,10.10
2023-04-25T08:29:40.781Z,10.60
2023-04-25T08:32:07.555Z,11.30
2023-04-25T08:34:34.622Z,11.50
2023-04-25T08:37:01.698Z,12.30
2023-04-25T08:39:29.113Z,13.90
2023-04-25T08:41:57.163Z,13.80
2023-04-25T08:44:25.621Z,13.10
2023-04-25T08:46:54.141Z,12.70
2023-04-25T08:49:21.528Z,12.00
2023-04-25T08:51:48.448Z,11.90
2023-04-25T08:54:30.803Z,11.90
2023-04-25T08:57:05.172Z,13.00
2023-04-25T08:59:33.189Z,14.10
2023-04-25T09:02:00.391Z,15.90
2023-04-25T09:04:27.438Z,16.20
2023-04-25T09:06:54.382Z,16.40
2023-04-25T09:09:22.337Z,16.00
2023-04-25T09:11:49.763Z,16.00
2023-04-25T09:14:22.177Z,16.60
2023-04-25T09:17:08.895Z,17.00
2023-04-25T09:19:41.505Z,15.50
2023-04-25T09:22:09.440Z,14.30
2023-04-25T09:24:42.446Z,13.00
2023-04-25T09:27:12.060Z,11.80
2023-04-25T09:29:40.505Z,11.20
2023-04-25T09:32:25.265Z,10.90
2023-04-25T09:34:57.149Z,10.90
2023-04-25T09:37:25.496Z,11.00
2023-04-25T09:40:01.322Z,10.90
2023-04-25T09:42:30.005Z,12.60
2023-04-25T09:44:58.063Z,13.90
2023-04-25T09:47:26.614Z,13.50
2023-04-25T09:49:54.567Z,13.00
2023-04-25T09:52:25.682Z,12.80
2023-04-25T09:54:55.052Z,12.30
2023-04-25T09:57:26.949Z,11.90
2023-04-25T09:59:55.616Z,11.80
2023-04-25T10:02:26.143Z,11.90
2023-04-25T10:04:57.974Z,12.00
2023-04-25T10:07:30.105Z,12.00
2023-04-25T10:10:03.834Z,12.20
2023-04-25T10:12:34.569Z,12.90
2023-04-25T10:15:02.338Z,14.70
2023-04-25T10:17:30.051Z,17.00
2023-04-25T10:19:57.635Z,18.10
2023-04-25T10:22:31.780Z,19.60
2023-04-25T10:24:59.312Z,23.10
2023-04-25T10:27:29.032Z,21.60
2023-04-25T10:30:05.230Z,21.90
2023-04-25T10:32:35.877Z,18.10
2023-04-25T10:35:14.465Z,16.50
2023-04-25T10:37:59.442Z,15.50
2023-04-25T10:40:27.119Z,16.30
2023-04-25T10:42:58.060Z,15.10
2023-04-25T10:45:25.041Z,13.30
2023-04-25T10:47:55.670Z,12.50
2023-04-25T10:50:39.670Z,11.80
2023-04-25T10:53:17.021Z,11.20
2023-04-25T10:55:54.063Z,10.60
2023-04-25T10:58:23.761Z,10.30
2023-04-25T11:03:22.623Z,10.50
2023-04-25T11:05:57.744Z,10.80
2023-04-25T11:09:04.124Z,10.80
2023-04-25T11:11:31.355Z,11.10
2023-04-25T11:13:59.193Z,12.30
2023-04-25T11:16:28.421Z,14.50
2023-04-25T11:18:58.418Z,14.30
2023-04-25T11:21:28.722Z,13.60
2023-04-25T11:23:57.551Z,12.80
2023-04-25T11:26:25.975Z,12.30
2023-04-25T11:28:53.006Z,12.30
2023-04-25T11:31:23.467Z,12.40
2023-04-25T11:33:50.701Z,13.50
2023-04-25T11:36:17.914Z,13.70
2023-04-25T11:38:45.267Z,13.60
2023-04-25T11:41:12.913Z,13.10
2023-04-25T11:43:40.895Z,13.00
2023-04-25T11:46:09.957Z,13.10
2023-04-25T11:48:43.709Z,14.00
2023-04-25T11:51:11.317Z,15.10
2023-04-25T11:53:42.517Z,15.30
2023-04-25T11:56:12.881Z,16.10
2023-04-25T11:59:02.178Z,15.70
2023-04-25T12:01:38.247Z,14.30
2023-04-25T12:04:14.829Z,14.20
2023-04-25T12:06:43.545Z,14.20
2023-04-25T12:09:12.438Z,14.40
2023-04-25T12:12:10.757Z,14.20
2023-04-25T12:14:37.781Z,14.30
2023-04-25T12:17:08.731Z,14.10
2023-04-25T12:19:38.321Z,13.50
2023-04-25T12:22:23.508Z,13.90
2023-04-25T12:24:51.080Z,14.90
2023-04-25T12:27:20.169Z,14.20
2023-04-25T12:29:55.525Z,14.30
2023-04-25T12:32:22.570Z,13.80
2023-04-25T12:34:49.407Z,13.40
2023-04-25T12:37:16.695Z,15.00
2023-04-25T12:39:43.541Z,15.40
2023-04-25T12:42:12.895Z,15.00
2023-04-25T12:44:40.944Z,15.80
2023-04-25T12:47:07.843Z,15.60
2023-04-25T12:49:35.052Z,15.90
2023-04-25T12:52:02.072Z,16.30
2023-04-25T12:54:29.122Z,16.50
2023-04-25T12:56:56.437Z,16.30
2023-04-25T12:59:23.423Z,14.50
2023-04-25T13:01:50.527Z,14.30
2023-04-25T13:04:18.710Z,15.00
2023-04-25T13:06:46.196Z,13.20
2023-04-25T13:09:14.458Z,12.40
2023-04-25T13:11:42.316Z,12.20
2023-04-25T13:14:09.172Z,12.20
2023-04-25T13:16:37.272Z,12.40
2023-04-25T13:19:04.179Z,12.90
2023-04-25T13:21:34.103Z,14.00
2023-04-25T13:24:01.205Z,14.60
2023-04-25T13:26:28.119Z,14.80
2023-04-25T13:28:55.181Z,14.40
2023-04-25T13:31:22.374Z,13.80
2023-04-25T13:33:49.892Z,13.40
2023-04-25T13:36:17.137Z,13.60
2023-04-25T13:38:45.901Z,14.10
2023-04-25T13:41:18.575Z,13.90
2023-04-25T13:43:48.336Z,13.40
2023-04-25T13:46:30.229Z,13.20
2023-04-25T13:49:12.394Z,13.50
2023-04-25T13:51:41.024Z,13.50
2023-04-25T13:54:08.544Z,13.40
2023-04-25T13:56:35.885Z,13.60
2023-04-25T13:59:02.711Z,13.60
2023-04-25T14:01:32.029Z,13.30
2023-04-25T14:03:58.913Z,13.60
2023-04-25T14:06:26.280Z,13.60
2023-04-25T14:08:53.475Z,13.10
2023-04-25T14:11:20.513Z,13.60
2023-04-25T14:13:48.586Z,13.80
2023-04-25T14:16:17.122Z,13.50
2023-04-25T14:18:44.009Z,13.20
2023-04-25T14:21:11.714Z,12.80
2023-04-25T14:23:38.618Z,12.60
2023-04-25T14:26:06.196Z,12.30
2023-04-25T14:28:33.132Z,12.30
2023-04-25T14:31:00.189Z,12.30
2023-04-25T14:33:27.137Z,12.40
2023-04-25T14:35:54.243Z,12.50
2023-04-25T14:38:24.183Z,12.20
2023-04-25T14:40:51.541Z,12.30
2023-04-25T14:43:18.666Z,12.40
2023-04-25T14:45:46.096Z,12.50
2023-04-25T14:48:13.393Z,12.50
2023-04-25T14:50:40.824Z,12.20
2023-04-25T14:53:07.744Z,12.10
2023-04-25T14:55:34.608Z,12.20
2023-04-25T14:58:02.118Z,12.20
2023-04-25T15:00:29.209Z,12.50
2023-04-25T15:02:57.173Z,12.30
2023-04-25T15:05:25.717Z,12.20
2023-04-25T15:07:52.563Z,12.30
2023-04-25T15:10:20.515Z,12.50
2023-04-25T15:12:47.992Z,12.50
2023-04-25T15:15:22.490Z,12.60
2023-04-25T15:17:56.489Z,12.40
2023-04-25T15:20:26.484Z,12.30
2023-04-25T15:22:54.913Z,12.00
2023-04-25T15:25:22.743Z,11.90
2023-04-25T15:27:52.635Z,11.90
2023-04-25T15:30:20.514Z,11.80
2023-04-25T15:32:48.312Z,11.80
2023-04-25T15:35:18.485Z,11.80
2023-04-25T15:37:46.219Z,11.80
2023-04-25T15:40:16.304Z,11.90
2023-04-25T15:42:53.347Z,12.10
2023-04-25T15:45:24.100Z,12.20
2023-04-25T15:47:52.993Z,12.30
2023-04-25T15:50:21.150Z,12.50
2023-04-25T15:52:49.982Z,12.80
2023-04-25T15:55:19.064Z,12.70
2023-04-25T15:57:46.013Z,12.50
2023-04-25T16:00:13.582Z,12.20
2023-04-25T16:02:41.772Z,12.10
2023-04-25T16:05:11.463Z,11.90
2023-04-25T16:07:41.849Z,11.70
2023-04-25T16:10:11.372Z,11.60
2023-04-25T16:12:41.224Z,11.60
2023-04-25T16:15:08.836Z,11.70
2023-04-25T16:17:36.051Z,11.70
2023-04-25T16:20:09.709Z,11.70
2023-04-25T16:22:38.649Z,11.60
2023-04-25T16:25:06.376Z,11.30
2023-04-25T16:27:34.706Z,11.30
2023-04-25T16:30:02.374Z,11.30
2023-04-25T16:32:29.243Z,11.40
2023-04-25T16:34:57.552Z,11.30
2023-04-25T16:37:26.002Z,11.10
2023-04-25T16:39:53.606Z,11.00
2023-04-25T16:42:20.680Z,11.00
2023-04-25T16:44:47.713Z,10.90
2023-04-25T16:47:18.716Z,10.70
2023-04-25T16:49:47.127Z,10.60
2023-04-25T16:52:15.089Z,10.70
2023-04-25T16:54:41.953Z,10.80
2023-04-25T16:57:11.096Z,10.90
2023-04-25T16:59:39.226Z,11.00
2023-04-25T17:02:10.688Z,10.80
2023-04-25T17:04:38.834Z,10.70
2023-04-25T17:07:05.836Z,10.70
2023-04-25T17:09:33.724Z,10.60
2023-04-25T17:12:03.031Z,10.60
2023-04-25T17:14:29.821Z,10.60
2023-04-25T17:16:56.935Z,10.60
2023-04-25T17:19:24.800Z,10.50
2023-04-25T17:21:51.839Z,10.40
2023-04-25T17:24:21.126Z,10.30
2023-04-25T17:26:48.968Z,10.20
2023-04-25T17:29:16.333Z,10.20
2023-04-25T17:31:44.224Z,10.10
2023-04-25T17:34:16.492Z,10.00
2023-04-25T17:36:44.742Z,10.00
2023-04-25T17:39:11.793Z,10.00
2023-04-25T17:41:38.795Z,9.90
2023-04-25T17:44:07.950Z,9.80
2023-04-25T17:46:35.000Z,9.80
2023-04-25T17:49:02.047Z,9.80
2023-04-25T17:51:29.109Z,9.70
2023-04-25T17:53:56.155Z,9.70
2023-04-25T17:56:27.019Z,9.60
2023-04-25T17:58:55.090Z,9.50
2023-04-25T18:01:22.549Z,9.50
2023-04-25T18:03:50.495Z,9.50
2023-04-25T18:06:18.273Z,9.50
2023-04-25T18:08:45.887Z,9.50
2023-04-25T18:11:13.123Z,9.50
2023-04-25T18:13:40.704Z,9.60
2023-04-25T18:16:08.004Z,9.50
2023-04-25T18:18:48.773Z,9.40
2023-04-25T18:21:15.705Z,9.30
2023-04-25T18:23:42.863Z,9.20
2023-04-25T18:26:09.856Z,9.10
2023-04-25T18:28:36.911Z,9.10
2023-04-25T18:31:04.356Z,9.10
2023-04-25T18:33:31.706Z,8.90
2023-04-25T18:35:59.848Z,8.80
2023-04-25T18:41:08.374Z,8.80
2023-04-25T18:43:44.837Z,8.70
2023-04-25T18:46:12.061Z,8.70
2023-04-25T18:48:39.057Z,8.70
2023-04-25T18:51:06.194Z,8.70
2023-04-25T18:53:33.339Z,8.70
2023-04-25T18:56:01.017Z,8.60
2023-04-25T18:58:28.226Z,8.60
2023-04-25T19:00:55.313Z,8.50
2023-04-25T19:03:22.791Z,8.40
2023-04-25T19:05:50.150Z,8.30
2023-04-25T19:08:17.115Z,8.30
2023-04-25T19:10:44.316Z,8.20
2023-04-25T19:13:11.236Z,8.20
2023-04-25T19:15:39.402Z,8.10
2023-04-25T19:18:06.621Z,7.90
2023-04-25T19:20:34.048Z,7.80
2023-04-25T19:23:01.626Z,7.90
2023-04-25T19:25:28.524Z,8.00
2023-04-25T19:27:55.650Z,8.00
2023-04-25T19:30:23.101Z,8.00
2023-04-25T19:32:50.065Z,8.00
2023-04-25T19:35:17.160Z,8.00
2023-04-25T19:37:46.910Z,8.10
2023-04-25T19:40:14.609Z,8.10
2023-04-25T19:42:41.699Z,8.10
2023-04-25T19:45:10.277Z,8.10
2023-04-25T19:47:40.391Z,7.90
2023-04-25T19:50:08.591Z,7.80
2023-04-25T19:52:37.134Z,7.90
2023-04-25T19:55:04.997Z,8.00
2023-04-25T19:57:33.537Z,8.00
2023-04-25T20:00:01.860Z,8.00
2023-04-25T20:02:29.033Z,8.00
2023-04-25T20:04:56.419Z,8.00
2023-04-25T20:07:24.441Z,8.00
2023-04-25T20:09:51.550Z,7.90
2023-04-25T20:12:18.466Z,7.70
2023-04-25T20:14:45.602Z,7.70
2023-04-25T20:17:12.819Z,7.60
2023-04-25T20:19:39.970Z,7.40
2023-04-25T20:22:06.961Z,7.40
2023-04-25T20:24:34.098Z,7.50
2023-04-25T20:27:01.163Z,7.50
2023-04-25T20:29:27.934Z,7.50
2023-04-25T20:31:55.130Z,7.50
2023-04-25T20:34:22.751Z,7.40
2023-04-25T20:36:50.067Z,7.30
2023-04-25T20:39:17.275Z,7.40
2023-04-25T20:41:47.446Z,7.40
2023-04-25T20:44:14.507Z,7.30
2023-04-25T20:46:41.702Z,7.20
2023-04-25T20:49:08.739Z,7.20
2023-04-25T20:51:36.890Z,7.10
2023-04-25T20:54:04.087Z,6.90
2023-04-25T20:56:31.229Z,7.00
2023-04-25T20:58:58.343Z,7.00
2023-04-25T21:01:25.387Z,7.00
2023-04-25T21:03:52.899Z,6.90
2023-04-25T21:06:20.160Z,6.70
2023-04-25T21:08:47.290Z,6.70
2023-04-25T21:11:14.577Z,6.70
2023-04-25T21:13:41.568Z,6.80
2023-04-25T21:16:08.677Z,6.80
2023-04-25T21:18:35.722Z,6.80
2023-04-25T21:21:04.204Z,6.80
2023-04-25T21:23:31.828Z,6.80
2023-04-25T21:25:58.879Z,6.60
2023-04-25T21:28:26.008Z,6.60
2023-04-25T21:30:53.177Z,6.40
2023-04-25T21:33:20.013Z,6.30
2023-04-25T21:35:47.545Z,6.30
2023-04-25T21:38:15.581Z,6.10
2023-04-25T21:40:42.548Z,6.00
2023-04-25T21:43:09.582Z,6.00
2023-04-25T21:45:47.092Z,6.00
2023-04-25T21:48:23.604Z,6.00
2023-04-25T21:50:50.696Z,6.10
2023-04-25T21:53:18.487Z,6.30
2023-04-25T21:55:45.558Z,6.40
2023-04-25T21:58:12.707Z,6.30
2023-04-25T22:00:39.607Z,6.50
2023-04-25T22:03:07.025Z,6.60
2023-04-25T22:05:34.897Z,6.80
2023-04-25T22:08:03.383Z,6.80
2023-04-25T22:10:30.288Z,6.80
2023-04-25T22:12:58.335Z,6.80
2023-04-25T22:15:25.539Z,6.80
2023-04-25T22:17:56.619Z,6.90
2023-04-25T22:20:26.532Z,6.90
2023-04-25T22:22:55.427Z,6.80
2023-04-25T22:25:22.674Z,6.60
2023-04-25T22:27:51.344Z,6.60
2023-04-25T22:30:18.445Z,6.30
2023-04-25T22:32:45.341Z,6.20
2023-04-25T22:35:13.858Z,6.10
2023-04-25T22:37:41.728Z,6.10
2023-04-25T22:40:09.321Z,6.20
2023-04-25T22:42:39.943Z,6.10
2023-04-25T22:45:08.358Z,6.20
2023-04-25T22:47:38.893Z,6.20
2023-04-25T22:50:07.705Z,6.00
2023-04-25T22:52:34.938Z,6.00
2023-04-25T22:55:03.286Z,5.90
2023-04-25T22:57:30.415Z,5.90
2023-04-25T22:59:57.511Z,5.60
2023-04-25T23:02:27.782Z,5.50
2023-04-25T23:04:55.037Z,5.40
2023-04-25T23:07:22.064Z,5.60
2023-04-25T23:09:49.323Z,5.60
2023-04-25T23:12:19.361Z,5.40
2023-04-25T23:14:53.577Z,5.40
2023-04-25T23:17:20.622Z,5.60
2023-04-25T23:19:48.286Z,5.70
2023-04-25T23:22:15.316Z,5.70
2023-04-25T23:24:42.356Z,5.70
2023-04-25T23:27:09.371Z,5.70
2023-04-25T23:29:36.355Z,5.60
2023-04-25T23:32:04.138Z,5.60
2023-04-25T23:34:32.771Z,5.60
2023-04-25T23:37:01.428Z,5.70
2023-04-25T23:39:28.959Z,5.60
2023-04-25T23:41:59.079Z,5.50
2023-04-25T23:44:26.106Z,5.60
2023-04-25T23:46:53.126Z,5.50
2023-04-25T23:49:20.953Z,5.50
2023-04-25T23:51:48.147Z,5.50
2023-04-25T23:54:15.401Z,5.40
2023-04-25T23:56:42.564Z,5.30
2023-04-25T23:59:09.561Z,5.20
